Time;durP1;ratioP1;P1;durP2;ratioP2;P2;SDS_P1;SDS_P2;PMS_P1;PMS_P2;Temp;Humidity;BMP_temperature;BMP_pressure;BME280_temperature;BME280_humidity;BME280_pressure;Samples;Min_cycle;Max_cycle;Signal;HPM_P1;HPM_P2
2022/01/19 00:00:59;;;;;;;3.70;1.30;;;20.60;46.90;;;;;;4911406;29;20052;-81
2022/01/19 00:03:24;;;;;;;3.15;0.93;;;20.60;46.90;;;;;;4910825;29;20052;-81
2022/01/19 00:05:50;;;;;;;2.45;1.00;;;20.60;46.90;;;;;;4911452;29;20052;-81
2022/01/19 00:08:21;;;;;;;2.78;1.02;;;20.60;46.90;;;;;;4911277;29;20504;-81
2022/01/19 00:10:47;;;;;;;2.13;0.90;;;20.60;47.00;;;;;;4724777;29;20072;-82
2022/01/19 00:13:13;;;;;;;2.42;0.70;;;20.60;47.00;;;;;;4890650;29;20441;-82
2022/01/19 00:15:38;;;;;;;2.20;1.00;;;20.60;47.00;;;;;;4890522;29;20052;-81
2022/01/19 00:18:04;;;;;;;3.28;0.63;;;20.50;47.00;;;;;;4898796;29;20075;-81
2022/01/19 00:20:33;;;;;;;3.10;1.10;;;20.50;47.00;;;;;;4899102;29;20063;-81
2022/01/19 00:23:00;;;;;;;3.55;0.85;;;20.60;47.10;;;;;;4899086;29;20784;-81
2022/01/19 00:25:25;;;;;;;2.85;0.90;;;20.50;47.00;;;;;;4898671;29;20052;-81
2022/01/19 00:27:51;;;;;;;3.20;1.10;;;20.60;47.10;;;;;;4898843;29;20142;-82
2022/01/19 00:30:17;;;;;;;2.58;0.90;;;20.50;47.10;;;;;;4898958;29;20044;-82
2022/01/19 00:32:42;;;;;;;2.45;0.85;;;20.50;47.10;;;;;;4898529;29;20043;-81
2022/01/19 00:35:09;;;;;;;4.05;1.02;;;20.50;47.10;;;;;;4899109;29;20488;-81
2022/01/19 00:37:35;;;;;;;2.58;1.00;;;20.40;47.00;;;;;;4883761;29;20589;-81
2022/01/19 00:40:01;;;;;;;2.83;0.70;;;20.40;47.10;;;;;;4897897;29;20044;-81
2022/01/19 00:42:26;;;;;;;2.88;1.00;;;20.40;47.10;;;;;;4899102;29;20059;-81
2022/01/19 00:44:52;;;;;;;2.55;0.93;;;20.40;47.10;;;;;;4898634;29;20040;-82
2022/01/19 00:47:17;;;;;;;1.58;0.80;;;20.40;47.10;;;;;;4898204;29;20052;-82
2022/01/19 00:49:43;;;;;;;2.47;0.90;;;20.40;47.20;;;;;;4898895;29;20044;-82
2022/01/19 00:52:09;;;;;;;2.65;0.95;;;21.00;47.40;;;;;;4894038;29;20067;-81
2022/01/19 00:54:35;;;;;;;4.18;1.00;;;20.40;47.20;;;;;;4895760;29;20040;-82
2022/01/19 00:57:01;;;;;;;3.78;1.17;;;20.30;47.10;;;;;;4895685;29;20134;-82
2022/01/19 00:59:26;;;;;;;3.65;0.90;;;20.30;47.20;;;;;;4894602;29;20041;-82
2022/01/19 01:01:52;;;;;;;3.20;0.90;;;20.30;47.10;;;;;;4895600;29;20056;-81
2022/01/19 01:04:17;;;;;;;2.22;0.80;;;20.30;47.20;;;;;;4895345;29;20048;-82
2022/01/19 01:06:43;;;;;;;3.15;0.98;;;20.30;47.20;;;;;;4894727;29;20452;-82
2022/01/19 01:09:09;;;;;;;1.55;0.77;;;20.30;47.20;;;;;;4880085;29;20102;-82
2022/01/19 01:11:46;;;;;;;2.42;1.00;;;20.30;47.20;;;;;;4894750;29;20531;-82
2022/01/19 01:16:58;;;;;;;2.15;0.85;;;20.20;47.20;;;;;;4895359;29;20063;-81
2022/01/19 01:19:23;;;;;;;2.95;1.13;;;20.30;47.20;;;;;;4895158;29;20056;-81
2022/01/19 01:21:49;;;;;;;3.10;0.95;;;20.20;47.20;;;;;;4894656;29;20057;-82
2022/01/19 01:24:14;;;;;;;2.72;1.30;;;20.20;47.20;;;;;;4895058;29;20139;-82
2022/01/19 01:26:40;;;;;;;2.38;0.80;;;20.20;47.20;;;;;;4895604;29;20409;-81
2022/01/19 01:29:06;;;;;;;3.42;1.30;;;20.20;47.20;;;;;;4894512;29;20048;-82
2022/01/19 01:31:31;;;;;;;2.25;1.00;;;20.20;47.30;;;;;;4894970;29;20139;-82
2022/01/19 01:33:57;;;;;;;2.13;0.82;;;20.20;47.30;;;;;;4895185;29;20529;-82
2022/01/19 01:36:22;;;;;;;3.42;0.98;;;21.40;48.00;;;;;;4894272;29;20052;-82
2022/01/19 01:38:48;;;;;;;3.65;1.00;;;20.20;47.30;;;;;;4894920;29;20100;-82
2022/01/19 01:41:14;;;;;;;3.67;0.95;;;20.20;47.40;;;;;;4894616;29;20048;-81
2022/01/19 01:43:41;;;;;;;2.58;1.02;;;20.10;47.30;;;;;;4894228;29;20520;-82
2022/01/19 01:46:11;;;;;;;2.83;0.80;;;20.10;47.30;;;;;;4894838;29;20084;-82
2022/01/19 01:48:42;;;;;;;3.70;1.35;;;20.10;47.30;;;;;;4893930;29;20170;-82
2022/01/19 01:53:56;;;;;;;3.28;1.23;;;20.10;47.30;;;;;;4916745;29;20134;-82
2022/01/19 01:56:21;;;;;;;3.13;1.15;;;20.10;47.40;;;;;;4916015;29;20687;-82
2022/01/19 01:58:47;;;;;;;2.53;1.00;;;20.10;47.40;;;;;;4916476;29;20052;-82
2022/01/19 02:01:13;;;;;;;3.08;1.23;;;20.10;47.40;;;;;;4932118;29;20134;-82
2022/01/19 02:03:40;;;;;;;3.65;1.00;;;20.00;47.40;;;;;;4915911;29;20079;-82
2022/01/19 02:06:29;;;;;;;3.08;1.05;;;20.00;47.40;;;;;;4916184;29;20500;-82
2022/01/19 02:09:06;;;;;;;2.42;0.90;;;20.20;47.50;;;;;;4916087;29;20134;-81
2022/01/19 02:22:56;;;;;;;2.97;0.90;;;20.00;47.50;;;;;;4915856;29;20146;-81
2022/01/19 02:25:27;;;;;;;2.35;0.90;;;19.90;47.40;;;;;;4931551;29;20051;-82
2022/01/19 02:41:17;;;;;;;3.53;1.00;;;19.90;47.60;;;;;;4896526;29;20055;-81
2022/01/19 02:43:46;;;;;;;3.30;1.08;;;19.90;47.50;;;;;;4915399;29;20436;-82
2022/01/19 02:51:40;;;;;;;2.25;0.80;;;19.90;47.60;;;;;;4858683;29;20513;-81
2022/01/19 02:54:09;;;;;;;3.58;1.42;;;19.90;47.60;;;;;;4859089;29;20501;-82
2022/01/19 02:56:38;;;;;;;3.05;1.00;;;19.80;47.60;;;;;;4844669;29;20057;-82
2022/01/19 02:59:15;;;;;;;1.85;0.80;;;20.00;47.70;;;;;;4858534;29;20108;-82
2022/01/19 03:09:46;;;;;;;4.35;1.20;;;19.80;47.60;;;;;;4868990;29;20057;-81
2022/01/19 03:12:12;;;;;;;3.88;1.10;;;19.80;47.60;;;;;;4890743;29;20060;-81
2022/01/19 03:14:38;;;;;;;3.53;1.30;;;19.80;47.90;;;;;;4895534;29;20469;-82
2022/01/19 03:17:05;;;;;;;1.80;0.80;;;19.80;47.60;;;;;;4724102;29;5099679;-82
2022/01/19 03:19:31;;;;;;;2.45;1.00;;;19.90;47.70;;;;;;4892148;29;20111;-81
2022/01/19 03:21:57;;;;;;;2.80;1.10;;;19.70;47.60;;;;;;4888164;29;20619;-82
2022/01/19 03:24:23;;;;;;;3.05;1.15;;;19.80;47.60;;;;;;4877457;29;20044;-81
2022/01/19 03:26:48;;;;;;;2.63;0.90;;;19.70;47.50;;;;;;4877024;29;20064;-81
2022/01/19 03:29:14;;;;;;;4.18;1.30;;;20.60;48.10;;;;;;4861469;29;20044;-82
2022/01/19 03:31:39;;;;;;;2.40;0.98;;;19.70;47.60;;;;;;4873136;29;20169;-81
2022/01/19 03:34:06;;;;;;;2.60;1.02;;;19.70;48.30;;;;;;4858405;29;20490;-81
2022/01/19 03:36:32;;;;;;;4.25;1.27;;;19.70;47.50;;;;;;4858399;29;20057;-82
2022/01/19 03:38:58;;;;;;;3.22;1.10;;;19.70;47.50;;;;;;4858737;29;20045;-82
2022/01/19 03:41:23;;;;;;;2.78;0.98;;;19.70;47.50;;;;;;4888941;29;20130;-81
2022/01/19 03:43:49;;;;;;;2.72;1.27;;;19.70;47.60;;;;;;4896258;29;20412;-81
2022/01/19 03:46:16;;;;;;;2.83;1.00;;;19.70;47.60;;;;;;4895995;29;20048;-81
2022/01/19 03:51:08;;;;;;;2.42;1.00;;;19.60;47.50;;;;;;4899828;29;20048;-81
2022/01/19 03:53:33;;;;;;;2.60;1.05;;;20.60;48.10;;;;;;4899621;29;20052;-82
2022/01/19 03:55:59;;;;;;;2.88;1.08;;;19.60;47.50;;;;;;4898962;29;20048;-81
2022/01/19 03:58:25;;;;;;;2.63;1.13;;;19.60;47.60;;;;;;4899611;29;20052;-81
2022/01/19 04:00:54;;;;;;;2.25;0.80;;;19.60;47.50;;;;;;4899951;29;20134;-82
2022/01/19 04:03:25;;;;;;;4.70;1.00;;;19.60;47.50;;;;;;4874930;29;20386;-82
2022/01/19 04:08:18;;;;;;;2.33;0.95;;;19.60;47.50;;;;;;4899731;29;20079;-81
2022/01/19 04:10:44;;;;;;;2.15;0.88;;;19.60;47.50;;;;;;4898951;29;20084;-81
2022/01/19 04:13:25;;;;;;;2.20;0.82;;;19.60;47.60;;;;;;4899426;29;20055;-82
2022/01/19 04:15:51;;;;;;;2.65;0.95;;;19.60;48.20;;;;;;4899739;29;20036;-81
2022/01/19 04:18:17;;;;;;;2.45;0.82;;;19.60;47.50;;;;;;4897961;29;20062;-82
2022/01/19 04:20:47;;;;;;;3.22;1.17;;;20.20;47.80;;;;;;4899247;29;20075;-81
2022/01/19 04:23:12;;;;;;;2.97;0.98;;;19.50;47.50;;;;;;4914323;29;20155;-81
2022/01/19 04:25:38;;;;;;;3.28;1.20;;;19.60;47.50;;;;;;4915015;29;20139;-81
2022/01/19 04:28:07;;;;;;;2.35;0.90;;;19.50;47.50;;;;;;4913945;29;20095;-81
2022/01/19 04:30:33;;;;;;;3.22;1.13;;;19.50;47.50;;;;;;4904150;29;20060;-81
2022/01/19 04:35:27;;;;;;;1.77;0.80;;;19.50;47.50;;;;;;4899113;29;20511;-82
2022/01/19 04:49:05;;;;;;;2.20;0.68;;;19.40;47.50;;;;;;4898742;29;20138;-81
2022/01/19 05:01:36;;;;;;;3.38;0.77;;;19.50;47.60;;;;;;4898520;29;20047;-81
2022/01/19 05:05:20;;;;;;;2.10;0.70;;;19.50;47.80;;;;;;4898465;29;20048;-81
2022/01/19 05:15:42;;;;;;;2.05;0.80;;;19.60;48.00;;;;;;4879601;29;20053;-82
2022/01/19 05:18:08;;;;;;;2.20;0.95;;;19.60;48.00;;;;;;4879608;29;20060;-82
2022/01/19 05:20:34;;;;;;;2.10;0.75;;;19.60;47.90;;;;;;4879065;29;20108;-82
2022/01/19 05:22:59;;;;;;;1.88;0.55;;;19.70;48.00;;;;;;4879558;29;20056;-82
2022/01/19 05:25:25;;;;;;;1.98;0.73;;;19.70;47.90;;;;;;4879293;29;20043;-82
2022/01/19 05:27:50;;;;;;;1.73;0.57;;;21.00;48.70;;;;;;4878739;29;20072;-82
2022/01/19 05:30:17;;;;;;;1.52;0.65;;;19.80;48.00;;;;;;4879407;29;20048;-82
2022/01/19 05:32:44;;;;;;;1.90;0.85;;;19.80;48.00;;;;;;4879480;29;20049;-82
2022/01/19 05:35:10;;;;;;;1.58;0.70;;;19.80;48.00;;;;;;4878757;29;20065;-82
2022/01/19 05:37:36;;;;;;;2.50;0.80;;;19.90;48.70;;;;;;4879434;29;20485;-81
2022/01/19 05:40:13;;;;;;;2.20;0.70;;;19.90;48.00;;;;;;4878626;29;20048;-81
2022/01/19 05:42:39;;;;;;;1.52;0.65;;;19.90;47.90;;;;;;4897480;29;20084;-82
2022/01/19 05:45:05;;;;;;;1.88;0.60;;;21.30;48.60;;;;;;4913914;29;20072;-82
2022/01/19 05:47:31;;;;;;;2.13;0.70;;;20.00;47.80;;;;;;4897003;29;20048;-82
2022/01/19 05:49:57;;;;;;;2.08;0.73;;;20.00;47.70;;;;;;4897573;29;20059;-82
2022/01/19 05:52:23;;;;;;;1.80;0.77;;;20.00;47.70;;;;;;4912954;29;20048;-82
2022/01/19 05:54:48;;;;;;;1.58;0.55;;;20.00;47.70;;;;;;4912615;29;20138;-81
2022/01/19 05:57:14;;;;;;;1.65;0.50;;;20.00;47.70;;;;;;4913467;29;20107;-81
2022/01/19 05:59:39;;;;;;;1.52;0.70;;;20.00;47.70;;;;;;4910384;29;20070;-82
2022/01/19 06:02:05;;;;;;;0.85;0.43;;;20.00;47.80;;;;;;4912646;29;20528;-81
2022/01/19 06:04:31;;;;;;;1.45;0.60;;;20.10;47.80;;;;;;4895327;29;20071;-82
2022/01/19 06:06:56;;;;;;;1.90;0.63;;;20.10;47.80;;;;;;4912869;29;20489;-82
2022/01/19 06:12:11;;;;;;;1.92;0.60;;;20.10;47.80;;;;;;4897159;29;20056;-81
2022/01/19 06:14:38;;;;;;;1.08;0.50;;;20.10;47.70;;;;;;4897175;29;20107;-81
2022/01/19 06:17:04;;;;;;;1.55;0.55;;;20.20;47.80;;;;;;4896386;29;20484;-81
2022/01/19 06:19:30;;;;;;;2.03;0.82;;;20.20;47.70;;;;;;4897062;29;20055;-81
2022/01/19 06:21:56;;;;;;;1.23;0.55;;;20.20;47.70;;;;;;4897140;29;20044;-81
2022/01/19 06:24:21;;;;;;;1.42;0.60;;;20.20;47.60;;;;;;4912125;29;20099;-81
2022/01/19 06:26:47;;;;;;;1.85;0.63;;;20.30;47.70;;;;;;4892802;29;20063;-81
2022/01/19 06:29:12;;;;;;;1.70;0.63;;;20.20;47.60;;;;;;4912508;29;20071;-81
2022/01/19 06:31:38;;;;;;;2.30;0.60;;;20.30;47.60;;;;;;4917476;29;20040;-81
2022/01/19 06:34:03;;;;;;;0.98;0.60;;;20.30;47.60;;;;;;4910888;29;20076;-81
2022/01/19 06:36:29;;;;;;;2.05;0.75;;;20.30;47.60;;;;;;4899078;29;20055;-81
2022/01/19 06:38:55;;;;;;;1.38;0.57;;;20.30;47.60;;;;;;4911700;29;20044;-81
2022/01/19 06:41:20;;;;;;;1.48;0.65;;;20.30;47.60;;;;;;4909180;29;20051;-81
2022/01/19 06:43:46;;;;;;;1.58;0.60;;;20.40;47.60;;;;;;4896197;29;20078;-81
2022/01/19 06:46:11;;;;;;;1.73;0.55;;;20.30;47.60;;;;;;4896157;29;20048;-81
2022/01/19 06:48:37;;;;;;;0.85;0.45;;;20.40;47.60;;;;;;4896761;29;20188;-81
2022/01/19 06:51:02;;;;;;;2.90;0.73;;;20.40;47.60;;;;;;4902926;29;20102;-81
2022/01/19 06:53:28;;;;;;;2.05;0.68;;;20.40;47.60;;;;;;4911868;29;20048;-81
2022/01/19 06:55:57;;;;;;;1.55;0.70;;;20.40;47.50;;;;;;4912535;29;20194;-82
2022/01/19 06:58:25;;;;;;;1.95;1.17;;;20.40;47.60;;;;;;4909085;29;20449;-81
2022/01/19 07:00:51;;;;;;;1.30;0.50;;;20.40;47.50;;;;;;4929906;29;20067;-81
2022/01/19 07:03:17;;;;;;;1.77;0.80;;;20.40;47.50;;;;;;4928868;29;20155;-81
2022/01/19 07:05:42;;;;;;;2.17;0.88;;;20.50;47.50;;;;;;4910990;29;20060;-81
2022/01/19 07:08:08;;;;;;;1.27;0.60;;;20.50;47.50;;;;;;4914825;29;20055;-81
2022/01/19 07:10:33;;;;;;;1.75;0.70;;;20.50;47.50;;;;;;4911833;29;20047;-81
2022/01/19 07:13:00;;;;;;;2.10;0.65;;;20.50;47.40;;;;;;4895604;29;20116;-82
2022/01/19 07:15:25;;;;;;;1.90;0.60;;;20.50;47.40;;;;;;4896774;29;20424;-81
2022/01/19 07:17:51;;;;;;;1.92;0.73;;;20.50;47.40;;;;;;4894296;29;20060;-81
2022/01/19 07:20:16;;;;;;;1.08;0.50;;;20.60;47.50;;;;;;4895401;29;20098;-82
2022/01/19 07:22:42;;;;;;;2.50;0.88;;;20.50;47.30;;;;;;4896145;29;20040;-82
2022/01/19 07:25:08;;;;;;;1.67;0.60;;;20.50;47.30;;;;;;4896666;29;20509;-82
2022/01/19 07:27:34;;;;;;;1.88;0.60;;;20.50;47.30;;;;;;4895549;29;20055;-81
2022/01/19 07:29:59;;;;;;;1.45;0.70;;;20.50;47.30;;;;;;4896324;29;20394;-81
2022/01/19 07:32:29;;;;;;;1.23;0.68;;;20.50;47.30;;;;;;4895821;29;20055;-81
2022/01/19 07:34:55;;;;;;;1.75;0.57;;;21.40;47.70;;;;;;4895597;29;20060;-84
2022/01/19 07:37:21;;;;;;;1.90;0.70;;;20.50;47.20;;;;;;4898524;29;20445;-81
2022/01/19 07:39:47;;;;;;;2.33;0.70;;;20.60;47.30;;;;;;4909062;29;20048;-81
2022/01/19 07:42:12;;;;;;;1.48;0.60;;;20.50;47.20;;;;;;4911938;29;20044;-81
2022/01/19 07:44:39;;;;;;;2.28;0.70;;;20.60;47.20;;;;;;4913319;29;20044;-81
2022/01/19 07:47:06;;;;;;;1.77;0.63;;;20.50;47.10;;;;;;4928246;29;20134;-81
2022/01/19 07:49:32;;;;;;;1.45;0.70;;;20.50;47.10;;;;;;4888326;29;20082;-82
2022/01/19 07:51:58;;;;;;;1.73;0.73;;;20.50;47.10;;;;;;4914294;29;20138;-81
2022/01/19 07:54:23;;;;;;;2.05;0.80;;;20.50;47.10;;;;;;4913814;29;20047;-81
2022/01/19 07:56:49;;;;;;;1.30;0.60;;;20.50;47.10;;;;;;4914888;29;20052;-81
2022/01/19 07:59:15;;;;;;;2.28;0.68;;;20.60;47.10;;;;;;4902618;29;20526;-81
2022/01/19 08:01:41;;;;;;;2.28;1.02;;;20.50;47.80;;;;;;4914156;29;20377;-81
2022/01/19 08:04:06;;;;;;;1.33;0.60;;;20.50;47.10;;;;;;4913566;29;20091;-82
2022/01/19 08:06:32;;;;;;;2.13;0.70;;;20.50;47.10;;;;;;4913787;29;20082;-81
2022/01/19 08:08:57;;;;;;;3.28;1.15;;;20.50;47.10;;;;;;4913947;29;20048;-81
2022/01/19 08:11:23;;;;;;;2.22;0.60;;;20.50;47.10;;;;;;4914575;29;20044;-81
2022/01/19 08:13:49;;;;;;;2.42;0.70;;;20.50;47.10;;;;;;4899212;29;20059;-81
2022/01/19 08:16:15;;;;;;;1.58;0.80;;;20.50;47.00;;;;;;4909770;29;20632;-81
2022/01/19 08:18:41;;;;;;;1.27;0.60;;;20.50;47.00;;;;;;4895771;29;20139;-80
2022/01/19 08:21:06;;;;;;;2.22;0.85;;;20.50;47.00;;;;;;4895831;29;20127;-81
2022/01/19 08:23:32;;;;;;;2.83;0.60;;;20.50;47.00;;;;;;4879012;29;20416;-81
2022/01/19 08:25:57;;;;;;;2.10;0.88;;;20.40;47.00;;;;;;4902314;29;20127;-81
2022/01/19 08:28:23;;;;;;;1.92;0.70;;;20.50;47.00;;;;;;4900841;29;20035;-81
2022/01/19 08:30:49;;;;;;;2.05;0.77;;;21.60;47.50;;;;;;4911185;29;20044;-80
2022/01/19 08:33:14;;;;;;;1.75;0.73;;;20.40;46.90;;;;;;4905505;29;20130;-81
2022/01/19 08:35:40;;;;;;;1.83;0.77;;;20.40;46.90;;;;;;4913683;29;20163;-81
2022/01/19 08:38:05;;;;;;;6.43;0.90;;;20.80;47.10;;;;;;4913807;29;20043;-80
2022/01/19 08:40:33;;;;;;;2.30;0.80;;;20.40;46.90;;;;;;4907305;29;20574;-80
2022/01/19 08:42:59;;;;;;;3.42;0.75;;;20.40;46.90;;;;;;4913929;29;20041;-85
2022/01/19 08:45:24;;;;;;;2.63;0.90;;;20.40;47.00;;;;;;4921416;29;20056;-85
2022/01/19 08:47:50;;;;;;;3.58;0.88;;;20.40;47.10;;;;;;4914257;29;20420;-84
2022/01/19 08:50:16;;;;;;;2.67;0.90;;;20.40;47.20;;;;;;4902227;29;20135;-84
2022/01/19 08:52:45;;;;;;;2.45;1.17;;;20.40;47.20;;;;;;4912259;29;20563;-89
2022/01/19 08:55:10;;;;;;;1.92;0.70;;;20.40;47.20;;;;;;4916149;29;20051;-81
2022/01/19 08:57:36;;;;;;;2.47;0.70;;;20.40;47.20;;;;;;4915988;29;20457;-82
2022/01/19 09:00:04;;;;;;;4.78;1.20;;;20.40;47.20;;;;;;4914130;29;20523;-80
2022/01/19 09:02:29;;;;;;;7.10;2.33;;;20.40;47.10;;;;;;4918958;29;20071;-79
2022/01/19 09:04:55;;;;;;;9.57;3.35;;;20.40;47.20;;;;;;4909456;29;20091;-80
2022/01/19 09:07:21;;;;;;;7.30;2.72;;;20.40;47.00;;;;;;4898538;29;20086;-79
2022/01/19 09:09:46;;;;;;;6.70;2.38;;;21.70;47.60;;;;;;4915750;29;20040;-82
2022/01/19 09:12:12;;;;;;;8.70;2.33;;;20.70;47.10;;;;;;4903767;29;20056;-82
2022/01/19 09:14:37;;;;;;;3.50;1.50;;;20.40;47.00;;;;;;4913613;29;20524;-81
2022/01/19 09:17:07;;;;;;;5.60;1.60;;;20.50;47.10;;;;;;4897140;29;20056;-81
2022/01/19 09:19:34;;;;;;;3.63;1.30;;;20.50;47.10;;;;;;4914814;29;20408;-81
2022/01/19 09:22:02;;;;;;;4.30;1.40;;;20.50;47.10;;;;;;4901269;29;20135;-81
2022/01/19 09:24:28;;;;;;;3.28;1.30;;;20.50;47.10;;;;;;4910542;29;20055;-81
2022/01/19 09:26:53;;;;;;;3.45;1.20;;;20.50;47.10;;;;;;4914602;29;20051;-81
2022/01/19 09:29:19;;;;;;;4.03;1.10;;;21.90;47.80;;;;;;4916650;29;20055;-82
2022/01/19 09:31:44;;;;;;;3.85;1.25;;;20.50;47.10;;;;;;4916289;29;20710;-81
2022/01/19 09:34:14;;;;;;;2.90;1.02;;;21.70;47.70;;;;;;4931729;29;20052;-81
2022/01/19 09:36:49;;;;;;;4.50;1.35;;;20.60;47.10;;;;;;4898868;29;20063;-81
2022/01/19 09:39:17;;;;;;;3.03;1.17;;;20.50;47.10;;;;;;4915445;29;20086;-82
2022/01/19 09:41:42;;;;;;;3.50;1.00;;;20.50;47.00;;;;;;4915754;29;20080;-81
2022/01/19 09:44:08;;;;;;;2.38;1.00;;;20.60;47.10;;;;;;4914898;29;20036;-81
2022/01/19 09:46:35;;;;;;;2.38;1.02;;;20.50;47.00;;;;;;4915525;29;20059;-81
2022/01/19 09:49:00;;;;;;;3.03;1.00;;;20.50;47.00;;;;;;4914397;29;20063;-81
2022/01/19 09:51:27;;;;;;;2.15;0.93;;;20.50;47.00;;;;;;4914768;29;20056;-82
2022/01/19 09:54:01;;;;;;;3.50;1.10;;;20.50;47.00;;;;;;4898642;29;20044;-82
2022/01/19 09:56:27;;;;;;;4.10;0.82;;;20.60;47.00;;;;;;4911438;29;20123;-80
2022/01/19 09:58:53;;;;;;;3.20;0.90;;;20.50;46.90;;;;;;4913960;29;20558;-82
2022/01/19 10:01:22;;;;;;;3.95;0.88;;;20.50;47.10;;;;;;4909962;29;20135;-82
2022/01/19 10:03:50;;;;;;;3.63;0.82;;;20.50;47.00;;;;;;4906220;29;20058;-83
2022/01/19 10:06:18;;;;;;;4.30;1.23;;;20.60;47.10;;;;;;4914202;29;20059;-82
2022/01/19 10:08:54;;;;;;;2.65;1.00;;;20.50;47.00;;;;;;4912455;29;20052;-83
2022/01/19 10:16:59;;;;;;;4.88;2.38;;;20.50;47.00;;;;;;4896088;29;20056;-82
2022/01/19 10:19:25;;;;;;;5.43;1.60;;;20.50;47.10;;;;;;4897208;29;20066;-83
2022/01/19 10:22:01;;;;;;;4.07;1.13;;;20.60;47.00;;;;;;4895420;29;20056;-81
2022/01/19 10:24:41;;;;;;;2.90;1.10;;;20.60;47.00;;;;;;4904051;29;20048;-82
2022/01/19 10:27:31;;;;;;;5.70;1.40;;;20.60;47.00;;;;;;4907337;29;20082;-84
2022/01/19 10:30:03;;;;;;;3.75;1.25;;;20.60;47.00;;;;;;4911723;29;20122;-83
2022/01/19 10:32:30;;;;;;;3.00;0.95;;;20.50;46.90;;;;;;4907468;29;20059;-83
2022/01/19 10:34:55;;;;;;;3.03;1.30;;;20.60;47.00;;;;;;4913847;29;20063;-83
2022/01/19 10:37:26;;;;;;;2.72;1.20;;;20.90;47.20;;;;;;4924832;29;20048;-86
2022/01/19 10:39:54;;;;;;;7.43;2.63;;;20.50;47.00;;;;;;4928571;29;20562;-85
2022/01/19 10:42:44;;;;;;;6.38;2.55;;;22.10;47.70;;;;;;4929555;29;20047;-85
2022/01/19 10:45:13;;;;;;;3.95;1.67;;;21.00;47.10;;;;;;4914770;29;20082;-82
2022/01/19 10:47:43;;;;;;;4.72;1.65;;;21.00;47.20;;;;;;4915884;29;20051;-83
2022/01/19 10:50:10;;;;;;;5.78;1.73;;;21.90;47.70;;;;;;4902581;29;20460;-83
2022/01/19 10:52:41;;;;;;;5.95;2.20;;;20.50;46.90;;;;;;4881027;29;20160;-82
2022/01/19 10:55:09;;;;;;;4.70;2.25;;;20.50;46.90;;;;;;4898430;29;20052;-83
2022/01/19 10:57:39;;;;;;;5.18;2.33;;;20.50;47.10;;;;;;4907778;29;20063;-87
2022/01/19 11:00:21;;;;;;;4.93;2.00;;;20.60;47.20;;;;;;4913091;29;20052;-84
2022/01/19 11:02:47;;;;;;;3.65;1.80;;;20.60;47.10;;;;;;4913855;29;20400;-83
2022/01/19 11:05:13;;;;;;;6.07;2.00;;;20.50;47.10;;;;;;4892768;29;20143;-83
2022/01/19 11:07:38;;;;;;;3.95;1.70;;;20.50;47.00;;;;;;4913922;29;20147;-82
2022/01/19 11:10:10;;;;;;;3.88;2.00;;;20.50;47.00;;;;;;4911809;29;20047;-83
2022/01/19 11:12:44;;;;;;;5.40;2.20;;;20.50;47.00;;;;;;4911701;29;20060;-81
2022/01/19 11:15:10;;;;;;;4.18;1.88;;;20.50;47.00;;;;;;4912458;29;20087;-85
2022/01/19 11:17:36;;;;;;;5.47;1.90;;;20.50;47.00;;;;;;4911799;29;20051;-84
2022/01/19 11:20:07;;;;;;;4.20;2.05;;;20.50;47.00;;;;;;4905600;29;20072;-82
2022/01/19 11:22:38;;;;;;;4.95;1.85;;;20.50;47.10;;;;;;4912381;29;20040;-82
2022/01/19 11:25:24;;;;;;;4.77;1.93;;;20.50;47.10;;;;;;4905492;29;20063;-82
2022/01/19 11:27:50;;;;;;;3.58;1.58;;;20.50;47.10;;;;;;4905176;29;20051;-82
2022/01/19 11:30:33;;;;;;;3.85;1.55;;;20.50;47.00;;;;;;4909058;29;20123;-82
2022/01/19 11:33:25;;;;;;;4.25;1.90;;;20.60;47.00;;;;;;4907726;29;20530;-82
2022/01/19 11:36:21;;;;;;;4.43;2.05;;;21.20;47.30;;;;;;4896309;29;20559;-82
2022/01/19 11:38:52;;;;;;;3.10;1.52;;;20.60;47.00;;;;;;4893918;29;20058;-82
2022/01/19 11:41:17;;;;;;;4.13;1.80;;;20.60;47.00;;;;;;4906090;29;20052;-82
2022/01/19 11:43:50;;;;;;;4.03;1.60;;;20.60;46.90;;;;;;4911212;29;20055;-82
2022/01/19 11:46:36;;;;;;;3.03;1.52;;;20.60;47.60;;;;;;4913309;29;20093;-82
2022/01/19 11:49:03;;;;;;;3.50;1.45;;;20.60;46.90;;;;;;4914629;29;20043;-81
2022/01/19 11:51:34;;;;;;;2.92;1.50;;;20.60;46.90;;;;;;4914753;29;20048;-82
2022/01/19 11:54:30;;;;;;;3.88;1.90;;;20.60;46.80;;;;;;4925567;29;20066;-82
2022/01/19 11:56:58;;;;;;;3.15;1.80;;;20.60;46.80;;;;;;4912520;29;20071;-82
2022/01/19 11:59:25;;;;;;;3.95;2.25;;;20.60;46.80;;;;;;4910097;29;20548;-82
2022/01/19 12:01:51;;;;;;;4.05;1.95;;;20.60;46.70;;;;;;4911318;29;20300;-82
2022/01/19 12:04:20;;;;;;;3.15;1.63;;;20.60;46.80;;;;;;4912517;29;20548;-82
2022/01/19 12:06:47;;;;;;;3.65;2.13;;;20.60;46.70;;;;;;4912560;29;20515;-81
2022/01/19 12:09:13;;;;;;;4.13;2.15;;;20.60;46.70;;;;;;4906157;29;20060;-82
2022/01/19 12:11:45;;;;;;;3.33;1.83;;;20.60;46.70;;;;;;4898109;29;20056;-82
2022/01/19 12:14:15;;;;;;;4.45;2.08;;;20.60;46.70;;;;;;4899011;29;20050;-81
2022/01/19 12:17:08;;;;;;;4.20;1.95;;;20.60;46.70;;;;;;4914493;29;20056;-81
2022/01/19 12:20:05;;;;;;;5.10;2.22;;;20.60;46.70;;;;;;4898968;29;20044;-82
2022/01/19 12:22:34;;;;;;;4.63;2.03;;;20.30;46.50;;;;;;4898084;29;20052;-82
2022/01/19 12:25:01;;;;;;;4.32;2.08;;;20.50;46.60;;;;;;4914270;29;20135;-82
2022/01/19 12:27:44;;;;;;;3.40;2.00;;;20.50;46.60;;;;;;4899069;29;20160;-82
2022/01/19 12:30:16;;;;;;;4.60;2.58;;;20.00;46.30;;;;;;4901881;29;20036;-82
2022/01/19 12:33:03;;;;;;;4.10;1.98;;;20.50;46.60;;;;;;4900672;29;20044;-82
2022/01/19 12:35:34;;;;;;;4.20;1.95;;;20.50;46.50;;;;;;4914882;29;20035;-82
2022/01/19 12:38:00;;;;;;;4.43;2.17;;;20.50;46.60;;;;;;4915091;29;20040;-83
2022/01/19 12:40:35;;;;;;;4.78;2.50;;;20.50;46.50;;;;;;4906538;29;21017;-85
2022/01/19 12:43:44;;;;;;;4.78;2.30;;;20.50;46.70;;;;;;4915031;29;20616;-83
2022/01/19 12:46:13;;;;;;;4.43;2.20;;;20.50;46.60;;;;;;4913926;29;20127;-83
2022/01/19 12:48:41;;;;;;;3.95;2.30;;;20.50;46.70;;;;;;4917304;29;20142;-84
2022/01/19 12:51:29;;;;;;;3.45;2.03;;;20.50;46.70;;;;;;4915181;29;20385;-86
2022/01/19 12:53:58;;;;;;;3.15;1.80;;;20.50;47.50;;;;;;4917235;29;20528;-82
2022/01/19 12:56:23;;;;;;;5.38;2.60;;;20.50;46.80;;;;;;4917560;29;20143;-84
2022/01/19 12:58:49;;;;;;;5.97;2.50;;;20.50;46.80;;;;;;4932314;29;20150;-84
2022/01/19 13:01:18;;;;;;;8.05;2.53;;;20.70;47.00;;;;;;4917273;29;20039;-84
2022/01/19 13:03:45;;;;;;;4.97;2.60;;;20.50;46.90;;;;;;4932095;29;20144;-86
2022/01/19 13:06:14;;;;;;;11.93;6.82;;;20.50;46.90;;;;;;4916766;29;20451;-84
2022/01/19 13:09:24;;;;;;;9.90;6.93;;;20.50;46.50;;;;;;4904457;29;20099;-85
2022/01/19 13:12:16;;;;;;;10.95;7.45;;;20.50;46.50;;;;;;4912390;29;20064;-84
2022/01/19 13:14:55;;;;;;;8.35;5.93;;;19.90;46.30;;;;;;4886322;29;20048;-81
2022/01/19 13:17:52;;;;;;;11.57;7.10;;;19.60;46.30;;;;;;4898755;29;20056;-81
2022/01/19 13:20:31;;;;;;;10.05;7.15;;;20.50;46.40;;;;;;4897957;29;20559;-81
2022/01/19 13:23:14;;;;;;;14.32;8.45;;;20.40;46.90;;;;;;4896854;29;20139;-81
2022/01/19 13:25:40;;;;;;;11.82;7.50;;;20.40;46.10;;;;;;4896066;29;20525;-81
2022/01/19 13:28:15;;;;;;;12.02;8.10;;;21.70;47.10;;;;;;4897937;29;20051;-81
2022/01/19 13:30:59;;;;;;;10.50;7.70;;;19.40;46.30;;;;;;4884951;29;20036;-81
2022/01/19 13:33:32;;;;;;;9.88;6.50;;;20.60;46.70;;;;;;4910456;29;20052;-81
2022/01/19 13:36:12;;;;;;;9.60;7.82;;;22.10;47.70;;;;;;4923044;29;20062;-83
2022/01/19 13:38:38;;;;;;;11.55;7.85;;;21.80;47.50;;;;;;4897806;29;20048;-81
2022/01/19 13:41:08;;;;;;;11.00;7.72;;;20.50;46.00;;;;;;4897332;29;20051;-83
2022/01/19 13:43:43;;;;;;;12.82;8.57;;;20.50;46.60;;;;;;4901370;29;20044;-81
2022/01/19 13:46:16;;;;;;;11.18;7.05;;;21.70;46.50;;;;;;4919013;29;20063;-84
2022/01/19 13:48:47;;;;;;;10.90;7.25;;;20.50;46.20;;;;;;4915322;29;20086;-86
2022/01/19 13:51:18;;;;;;;12.38;7.07;;;20.50;46.20;;;;;;4915705;29;20051;-86
2022/01/19 13:53:49;;;;;;;9.63;7.00;;;20.50;46.30;;;;;;4915698;29;20396;-88
2022/01/19 13:56:22;;;;;;;10.80;6.82;;;20.60;46.40;;;;;;4931703;29;20048;-87
2022/01/19 13:58:50;;;;;;;10.25;6.55;;;20.50;46.30;;;;;;4911826;29;20505;-86
2022/01/19 14:01:20;;;;;;;10.80;6.95;;;20.50;46.30;;;;;;4903134;29;20048;-85
2022/01/19 14:03:50;;;;;;;9.30;6.50;;;20.90;46.40;;;;;;4915859;29;20047;-82
2022/01/19 14:06:24;;;;;;;11.00;6.72;;;20.70;46.10;;;;;;4936797;29;20055;-82
2022/01/19 14:08:50;;;;;;;7.82;5.47;;;20.50;46.00;;;;;;4929379;29;20059;-84
2022/01/19 14:11:25;;;;;;;9.63;6.32;;;20.40;46.00;;;;;;4923512;29;20059;-86
2022/01/19 14:14:01;;;;;;;8.55;5.45;;;20.70;46.20;;;;;;4930834;29;20048;-82
2022/01/19 14:16:38;;;;;;;9.27;6.55;;;20.40;46.10;;;;;;4915582;29;20399;-82
2022/01/19 14:19:19;;;;;;;10.07;6.35;;;20.50;46.20;;;;;;4915678;29;20059;-81
2022/01/19 14:22:10;;;;;;;9.32;5.60;;;20.40;46.20;;;;;;4914875;29;20058;-82
2022/01/19 14:24:47;;;;;;;11.90;6.70;;;20.40;46.20;;;;;;4915521;29;20055;-82